sensor_id;sensor_type;location;lat;lon;timestamp;P1;durP1;ratioP1;P2;durP2;ratioP2
45887;SDS011;31595;51.418;7.572;2022-11-20T00:00:28;20.85;;;14.20;;
45887;SDS011;31595;51.418;7.572;2022-11-20T00:02:58;20.85;;;14.00;;
45887;SDS011;31595;51.418;7.572;2022-11-20T00:05:25;22.55;;;14.35;;
45887;SDS011;31595;51.418;7.572;2022-11-20T00:07:52;20.20;;;14.32;;
45887;SDS011;31595;51.418;7.572;2022-11-20T00:10:19;21.75;;;15.48;;
45887;SDS011;31595;51.418;7.572;2022-11-20T00:12:47;23.73;;;15.93;;
45887;SDS011;31595;51.418;7.572;2022-11-20T00:15:14;21.08;;;15.27;;
45887;SDS011;31595;51.418;7.572;2022-11-20T00:17:43;21.58;;;15.18;;
45887;SDS011;31595;51.418;7.572;2022-11-20T00:20:10;23.92;;;14.75;;
45887;SDS011;31595;51.418;7.572;2022-11-20T00:22:41;19.90;;;14.43;;
45887;SDS011;31595;51.418;7.572;2022-11-20T00:25:09;18.83;;;14.15;;
45887;SDS011;31595;51.418;7.572;2022-11-20T00:27:36;17.77;;;13.35;;
45887;SDS011;31595;51.418;7.572;2022-11-20T00:30:06;23.70;;;15.43;;
45887;SDS011;31595;51.418;7.572;2022-11-20T00:32:34;21.85;;;15.10;;
45887;SDS011;31595;51.418;7.572;2022-11-20T00:35:03;21.52;;;16.40;;
45887;SDS011;31595;51.418;7.572;2022-11-20T00:37:31;21.08;;;14.55;;
45887;SDS011;31595;51.418;7.572;2022-11-20T00:39:58;18.95;;;14.73;;
45887;SDS011;31595;51.418;7.572;2022-11-20T00:42:25;19.48;;;14.02;;
45887;SDS011;31595;51.418;7.572;2022-11-20T00:44:54;18.35;;;14.70;;
45887;SDS011;31595;51.418;7.572;2022-11-20T00:47:21;18.90;;;14.20;;
45887;SDS011;31595;51.418;7.572;2022-11-20T00:49:50;18.35;;;14.02;;
45887;SDS011;31595;51.418;7.572;2022-11-20T00:52:19;21.87;;;16.53;;
45887;SDS011;31595;51.418;7.572;2022-11-20T00:54:46;21.30;;;16.48;;
45887;SDS011;31595;51.418;7.572;2022-11-20T00:57:14;23.38;;;18.05;;
45887;SDS011;31595;51.418;7.572;2022-11-20T00:59:41;23.02;;;17.23;;
45887;SDS011;31595;51.418;7.572;2022-11-20T01:02:08;20.52;;;14.77;;
45887;SDS011;31595;51.418;7.572;2022-11-20T01:04:35;20.35;;;15.40;;
45887;SDS011;31595;51.418;7.572;2022-11-20T01:07:06;21.33;;;15.27;;
45887;SDS011;31595;51.418;7.572;2022-11-20T01:09:35;21.65;;;16.00;;
45887;SDS011;31595;51.418;7.572;2022-11-20T01:12:05;22.10;;;15.02;;
45887;SDS011;31595;51.418;7.572;2022-11-20T01:14:32;21.27;;;14.68;;
45887;SDS011;31595;51.418;7.572;2022-11-20T01:17:00;23.70;;;16.83;;
45887;SDS011;31595;51.418;7.572;2022-11-20T01:19:27;22.50;;;17.15;;
45887;SDS011;31595;51.418;7.572;2022-11-20T01:21:54;25.42;;;17.17;;
45887;SDS011;31595;51.418;7.572;2022-11-20T01:24:22;22.83;;;17.33;;
45887;SDS011;31595;51.418;7.572;2022-11-20T01:26:50;23.65;;;17.00;;
45887;SDS011;31595;51.418;7.572;2022-11-20T01:29:19;23.60;;;17.85;;
45887;SDS011;31595;51.418;7.572;2022-11-20T01:31:50;22.77;;;16.45;;
45887;SDS011;31595;51.418;7.572;2022-11-20T01:34:18;21.40;;;15.90;;
45887;SDS011;31595;51.418;7.572;2022-11-20T01:36:48;21.75;;;15.75;;
45887;SDS011;31595;51.418;7.572;2022-11-20T01:39:18;24.27;;;17.38;;
45887;SDS011;31595;51.418;7.572;2022-11-20T01:41:47;23.05;;;15.88;;
45887;SDS011;31595;51.418;7.572;2022-11-20T01:44:45;21.95;;;17.42;;
45887;SDS011;31595;51.418;7.572;2022-11-20T01:47:16;25.05;;;18.52;;
45887;SDS011;31595;51.418;7.572;2022-11-20T01:49:48;25.38;;;18.20;;
45887;SDS011;31595;51.418;7.572;2022-11-20T01:52:20;23.13;;;18.00;;
45887;SDS011;31595;51.418;7.572;2022-11-20T01:54:51;26.25;;;17.38;;
45887;SDS011;31595;51.418;7.572;2022-11-20T01:57:22;19.63;;;14.45;;
45887;SDS011;31595;51.418;7.572;2022-11-20T01:59:55;20.90;;;16.08;;
45887;SDS011;31595;51.418;7.572;2022-11-20T02:02:25;21.05;;;16.05;;
45887;SDS011;31595;51.418;7.572;2022-11-20T02:04:52;19.88;;;15.55;;
45887;SDS011;31595;51.418;7.572;2022-11-20T02:07:23;22.13;;;14.90;;
45887;SDS011;31595;51.418;7.572;2022-11-20T02:09:51;20.63;;;15.50;;
45887;SDS011;31595;51.418;7.572;2022-11-20T02:12:18;19.73;;;15.15;;
45887;SDS011;31595;51.418;7.572;2022-11-20T02:15:05;20.63;;;15.80;;
45887;SDS011;31595;51.418;7.572;2022-11-20T02:17:32;22.13;;;15.57;;
45887;SDS011;31595;51.418;7.572;2022-11-20T02:19:59;22.55;;;16.23;;
45887;SDS011;31595;51.418;7.572;2022-11-20T02:22:31;22.10;;;16.30;;
45887;SDS011;31595;51.418;7.572;2022-11-20T02:25:06;20.17;;;15.63;;
45887;SDS011;31595;51.418;7.572;2022-11-20T02:27:34;22.33;;;16.88;;
45887;SDS011;31595;51.418;7.572;2022-11-20T02:30:04;23.02;;;17.58;;
45887;SDS011;31595;51.418;7.572;2022-11-20T02:32:34;21.77;;;17.35;;
45887;SDS011;31595;51.418;7.572;2022-11-20T02:35:06;22.10;;;16.42;;
45887;SDS011;31595;51.418;7.572;2022-11-20T02:37:35;24.67;;;18.95;;
45887;SDS011;31595;51.418;7.572;2022-11-20T02:40:10;24.38;;;16.80;;
45887;SDS011;31595;51.418;7.572;2022-11-20T02:42:37;22.98;;;17.95;;
45887;SDS011;31595;51.418;7.572;2022-11-20T02:45:05;20.38;;;15.88;;
45887;SDS011;31595;51.418;7.572;2022-11-20T02:47:33;21.20;;;16.23;;
45887;SDS011;31595;51.418;7.572;2022-11-20T02:50:01;23.73;;;17.05;;
45887;SDS011;31595;51.418;7.572;2022-11-20T02:52:28;21.17;;;16.70;;
45887;SDS011;31595;51.418;7.572;2022-11-20T02:54:55;21.45;;;17.08;;
45887;SDS011;31595;51.418;7.572;2022-11-20T02:57:24;21.30;;;16.30;;
45887;SDS011;31595;51.418;7.572;2022-11-20T02:59:51;21.80;;;16.80;;
45887;SDS011;31595;51.418;7.572;2022-11-20T03:02:18;20.38;;;16.15;;
45887;SDS011;31595;51.418;7.572;2022-11-20T03:04:46;20.08;;;16.40;;
45887;SDS011;31595;51.418;7.572;2022-11-20T03:07:13;23.05;;;17.60;;
45887;SDS011;31595;51.418;7.572;2022-11-20T03:09:40;21.90;;;16.63;;
45887;SDS011;31595;51.418;7.572;2022-11-20T03:12:08;21.35;;;17.08;;
45887;SDS011;31595;51.418;7.572;2022-11-20T03:14:36;22.02;;;16.90;;
45887;SDS011;31595;51.418;7.572;2022-11-20T03:17:03;21.88;;;16.00;;
45887;SDS011;31595;51.418;7.572;2022-11-20T03:19:31;22.45;;;16.98;;
45887;SDS011;31595;51.418;7.572;2022-11-20T03:22:01;20.55;;;16.90;;
45887;SDS011;31595;51.418;7.572;2022-11-20T03:24:28;22.73;;;16.30;;
45887;SDS011;31595;51.418;7.572;2022-11-20T03:26:56;21.23;;;16.45;;
45887;SDS011;31595;51.418;7.572;2022-11-20T03:29:25;19.95;;;15.95;;
45887;SDS011;31595;51.418;7.572;2022-11-20T03:31:54;23.02;;;16.15;;
45887;SDS011;31595;51.418;7.572;2022-11-20T03:34:21;21.10;;;15.63;;
45887;SDS011;31595;51.418;7.572;2022-11-20T03:36:49;21.88;;;16.45;;
45887;SDS011;31595;51.418;7.572;2022-11-20T03:39:16;20.38;;;16.17;;
45887;SDS011;31595;51.418;7.572;2022-11-20T03:41:43;21.70;;;16.33;;
45887;SDS011;31595;51.418;7.572;2022-11-20T03:44:11;20.70;;;16.02;;
45887;SDS011;31595;51.418;7.572;2022-11-20T03:46:41;20.02;;;15.55;;
45887;SDS011;31595;51.418;7.572;2022-11-20T03:49:10;19.90;;;15.18;;
45887;SDS011;31595;51.418;7.572;2022-11-20T03:51:37;19.48;;;15.02;;
45887;SDS011;31595;51.418;7.572;2022-11-20T03:54:07;18.50;;;13.80;;
45887;SDS011;31595;51.418;7.572;2022-11-20T03:56:35;18.48;;;14.25;;
45887;SDS011;31595;51.418;7.572;2022-11-20T03:59:04;18.13;;;14.57;;
45887;SDS011;31595;51.418;7.572;2022-11-20T04:01:33;20.20;;;14.60;;
45887;SDS011;31595;51.418;7.572;2022-11-20T04:04:02;19.23;;;14.65;;
45887;SDS011;31595;51.418;7.572;2022-11-20T04:06:33;19.25;;;14.70;;
45887;SDS011;31595;51.418;7.572;2022-11-20T04:09:02;18.55;;;13.90;;
45887;SDS011;31595;51.418;7.572;2022-11-20T04:11:31;22.15;;;15.77;;
45887;SDS011;31595;51.418;7.572;2022-11-20T04:14:00;18.48;;;15.20;;
45887;SDS011;31595;51.418;7.572;2022-11-20T04:16:29;20.23;;;15.57;;
45887;SDS011;31595;51.418;7.572;2022-11-20T04:19:02;20.58;;;15.43;;
45887;SDS011;31595;51.418;7.572;2022-11-20T04:21:32;18.45;;;14.50;;
45887;SDS011;31595;51.418;7.572;2022-11-20T04:23:59;19.55;;;15.40;;
45887;SDS011;31595;51.418;7.572;2022-11-20T04:26:29;18.88;;;15.13;;
45887;SDS011;31595;51.418;7.572;2022-11-20T04:28:57;20.88;;;15.30;;
45887;SDS011;31595;51.418;7.572;2022-11-20T04:31:28;20.27;;;15.50;;
45887;SDS011;31595;51.418;7.572;2022-11-20T04:33:58;19.08;;;15.15;;
45887;SDS011;31595;51.418;7.572;2022-11-20T04:38:57;19.38;;;15.68;;
45887;SDS011;31595;51.418;7.572;2022-11-20T04:41:26;19.48;;;15.15;;
45887;SDS011;31595;51.418;7.572;2022-11-20T04:43:55;20.85;;;15.60;;
45887;SDS011;31595;51.418;7.572;2022-11-20T04:46:25;19.35;;;15.45;;
45887;SDS011;31595;51.418;7.572;2022-11-20T04:48:54;18.70;;;15.80;;
45887;SDS011;31595;51.418;7.572;2022-11-20T04:51:23;20.23;;;16.70;;
45887;SDS011;31595;51.418;7.572;2022-11-20T04:53:54;19.55;;;14.50;;
45887;SDS011;31595;51.418;7.572;2022-11-20T04:56:23;21.27;;;16.77;;
45887;SDS011;31595;51.418;7.572;2022-11-20T04:58:51;19.25;;;15.00;;
45887;SDS011;31595;51.418;7.572;2022-11-20T05:01:19;19.65;;;16.60;;
45887;SDS011;31595;51.418;7.572;2022-11-20T05:03:47;20.15;;;15.60;;
45887;SDS011;31595;51.418;7.572;2022-11-20T05:06:16;18.38;;;14.63;;
45887;SDS011;31595;51.418;7.572;2022-11-20T05:08:45;19.30;;;14.48;;
45887;SDS011;31595;51.418;7.572;2022-11-20T05:11:12;20.73;;;15.98;;
45887;SDS011;31595;51.418;7.572;2022-11-20T05:13:42;20.27;;;15.85;;
45887;SDS011;31595;51.418;7.572;2022-11-20T05:16:10;18.02;;;14.80;;
45887;SDS011;31595;51.418;7.572;2022-11-20T05:18:39;20.15;;;15.35;;
45887;SDS011;31595;51.418;7.572;2022-11-20T05:21:08;20.17;;;15.98;;
45887;SDS011;31595;51.418;7.572;2022-11-20T05:23:37;19.65;;;15.02;;
45887;SDS011;31595;51.418;7.572;2022-11-20T05:26:05;19.15;;;15.18;;
45887;SDS011;31595;51.418;7.572;2022-11-20T05:28:33;21.60;;;15.88;;
45887;SDS011;31595;51.418;7.572;2022-11-20T05:31:05;19.58;;;14.60;;
45887;SDS011;31595;51.418;7.572;2022-11-20T05:33:33;19.35;;;14.98;;
45887;SDS011;31595;51.418;7.572;2022-11-20T05:36:01;24.48;;;17.35;;
45887;SDS011;31595;51.418;7.572;2022-11-20T05:38:29;20.80;;;16.30;;
45887;SDS011;31595;51.418;7.572;2022-11-20T05:41:02;20.67;;;15.82;;
45887;SDS011;31595;51.418;7.572;2022-11-20T05:43:31;18.10;;;14.38;;
45887;SDS011;31595;51.418;7.572;2022-11-20T05:45:59;19.23;;;15.00;;
45887;SDS011;31595;51.418;7.572;2022-11-20T05:48:28;20.20;;;15.77;;
45887;SDS011;31595;51.418;7.572;2022-11-20T05:50:56;19.05;;;15.27;;
45887;SDS011;31595;51.418;7.572;2022-11-20T05:53:24;18.33;;;14.05;;
45887;SDS011;31595;51.418;7.572;2022-11-20T05:55:57;18.95;;;14.48;;
45887;SDS011;31595;51.418;7.572;2022-11-20T05:58:25;19.27;;;15.90;;
45887;SDS011;31595;51.418;7.572;2022-11-20T06:00:53;18.90;;;15.50;;
45887;SDS011;31595;51.418;7.572;2022-11-20T06:03:20;19.30;;;14.75;;
45887;SDS011;31595;51.418;7.572;2022-11-20T06:05:49;21.58;;;16.65;;
45887;SDS011;31595;51.418;7.572;2022-11-20T06:08:16;19.70;;;15.20;;
45887;SDS011;31595;51.418;7.572;2022-11-20T06:10:43;20.08;;;15.05;;
45887;SDS011;31595;51.418;7.572;2022-11-20T06:13:10;19.90;;;14.23;;
45887;SDS011;31595;51.418;7.572;2022-11-20T06:15:38;17.77;;;14.27;;
45887;SDS011;31595;51.418;7.572;2022-11-20T06:18:05;17.10;;;13.57;;
45887;SDS011;31595;51.418;7.572;2022-11-20T06:20:32;20.27;;;15.32;;
45887;SDS011;31595;51.418;7.572;2022-11-20T06:23:01;18.98;;;14.30;;
45887;SDS011;31595;51.418;7.572;2022-11-20T06:25:28;18.98;;;14.50;;
45887;SDS011;31595;51.418;7.572;2022-11-20T06:27:55;19.58;;;15.65;;
45887;SDS011;31595;51.418;7.572;2022-11-20T06:30:22;20.75;;;16.05;;
45887;SDS011;31595;51.418;7.572;2022-11-20T06:32:49;19.30;;;14.90;;
45887;SDS011;31595;51.418;7.572;2022-11-20T06:35:17;22.85;;;19.27;;
45887;SDS011;31595;51.418;7.572;2022-11-20T06:37:44;24.27;;;19.45;;
45887;SDS011;31595;51.418;7.572;2022-11-20T06:40:13;23.27;;;16.90;;
45887;SDS011;31595;51.418;7.572;2022-11-20T06:42:40;21.13;;;16.25;;
45887;SDS011;31595;51.418;7.572;2022-11-20T06:45:08;19.90;;;15.05;;
45887;SDS011;31595;51.418;7.572;2022-11-20T06:47:36;20.08;;;14.80;;
45887;SDS011;31595;51.418;7.572;2022-11-20T06:50:03;18.67;;;14.85;;
45887;SDS011;31595;51.418;7.572;2022-11-20T06:52:31;19.35;;;15.23;;
45887;SDS011;31595;51.418;7.572;2022-11-20T06:54:59;20.00;;;14.57;;
45887;SDS011;31595;51.418;7.572;2022-11-20T06:57:28;18.88;;;14.85;;
45887;SDS011;31595;51.418;7.572;2022-11-20T06:59:55;18.90;;;14.88;;
45887;SDS011;31595;51.418;7.572;2022-11-20T07:02:22;19.55;;;14.27;;
45887;SDS011;31595;51.418;7.572;2022-11-20T07:04:49;21.00;;;15.43;;
45887;SDS011;31595;51.418;7.572;2022-11-20T07:07:17;18.52;;;14.40;;
45887;SDS011;31595;51.418;7.572;2022-11-20T07:09:48;18.90;;;14.88;;
45887;SDS011;31595;51.418;7.572;2022-11-20T07:12:15;20.13;;;15.52;;
45887;SDS011;31595;51.418;7.572;2022-11-20T07:14:47;20.35;;;15.65;;
45887;SDS011;31595;51.418;7.572;2022-11-20T07:17:14;18.67;;;14.10;;
45887;SDS011;31595;51.418;7.572;2022-11-20T07:19:42;19.42;;;14.07;;
45887;SDS011;31595;51.418;7.572;2022-11-20T07:22:09;19.05;;;13.68;;
45887;SDS011;31595;51.418;7.572;2022-11-20T07:24:36;20.25;;;14.75;;
45887;SDS011;31595;51.418;7.572;2022-11-20T07:27:04;20.27;;;15.40;;
45887;SDS011;31595;51.418;7.572;2022-11-20T07:29:31;18.05;;;13.27;;
45887;SDS011;31595;51.418;7.572;2022-11-20T07:32:00;17.42;;;13.82;;
45887;SDS011;31595;51.418;7.572;2022-11-20T07:34:27;18.35;;;13.15;;
45887;SDS011;31595;51.418;7.572;2022-11-20T07:36:54;17.08;;;13.88;;
45887;SDS011;31595;51.418;7.572;2022-11-20T07:39:22;18.50;;;13.93;;
45887;SDS011;31595;51.418;7.572;2022-11-20T07:41:49;21.35;;;15.70;;
45887;SDS011;31595;51.418;7.572;2022-11-20T07:44:16;18.67;;;13.35;;
45887;SDS011;31595;51.418;7.572;2022-11-20T07:46:43;18.60;;;14.38;;
45887;SDS011;31595;51.418;7.572;2022-11-20T07:49:14;18.02;;;15.10;;
45887;SDS011;31595;51.418;7.572;2022-11-20T07:51:41;19.67;;;15.27;;
45887;SDS011;31595;51.418;7.572;2022-11-20T07:54:08;18.45;;;14.23;;
45887;SDS011;31595;51.418;7.572;2022-11-20T07:56:35;18.23;;;14.80;;
45887;SDS011;31595;51.418;7.572;2022-11-20T07:59:03;15.15;;;12.73;;
45887;SDS011;31595;51.418;7.572;2022-11-20T08:01:30;20.58;;;15.45;;
45887;SDS011;31595;51.418;7.572;2022-11-20T08:03:57;16.63;;;13.85;;
45887;SDS011;31595;51.418;7.572;2022-11-20T08:06:26;15.00;;;11.50;;
45887;SDS011;31595;51.418;7.572;2022-11-20T08:08:55;12.95;;;11.52;;
45887;SDS011;31595;51.418;7.572;2022-11-20T08:11:22;14.95;;;12.82;;
45887;SDS011;31595;51.418;7.572;2022-11-20T08:14:07;13.20;;;11.75;;
45887;SDS011;31595;51.418;7.572;2022-11-20T08:16:41;14.77;;;12.23;;
45887;SDS011;31595;51.418;7.572;2022-11-20T08:19:10;12.90;;;11.55;;
45887;SDS011;31595;51.418;7.572;2022-11-20T08:21:39;12.50;;;10.80;;
45887;SDS011;31595;51.418;7.572;2022-11-20T08:24:06;11.75;;;10.63;;
45887;SDS011;31595;51.418;7.572;2022-11-20T08:26:34;11.00;;;9.98;;
45887;SDS011;31595;51.418;7.572;2022-11-20T08:29:02;10.35;;;9.25;;
45887;SDS011;31595;51.418;7.572;2022-11-20T08:31:30;11.95;;;10.10;;
45887;SDS011;31595;51.418;7.572;2022-11-20T08:33:58;11.02;;;9.55;;
45887;SDS011;31595;51.418;7.572;2022-11-20T08:36:26;11.88;;;10.68;;
45887;SDS011;31595;51.418;7.572;2022-11-20T08:38:55;10.13;;;9.13;;
45887;SDS011;31595;51.418;7.572;2022-11-20T08:41:22;13.20;;;11.87;;
45887;SDS011;31595;51.418;7.572;2022-11-20T08:43:51;14.82;;;13.32;;
45887;SDS011;31595;51.418;7.572;2022-11-20T08:46:21;11.85;;;10.65;;
45887;SDS011;31595;51.418;7.572;2022-11-20T08:48:50;11.82;;;10.68;;
45887;SDS011;31595;51.418;7.572;2022-11-20T08:51:18;9.82;;;8.73;;
45887;SDS011;31595;51.418;7.572;2022-11-20T08:53:46;9.23;;;8.30;;
45887;SDS011;31595;51.418;7.572;2022-11-20T08:56:16;9.18;;;7.93;;
45887;SDS011;31595;51.418;7.572;2022-11-20T08:58:44;8.50;;;7.70;;
45887;SDS011;31595;51.418;7.572;2022-11-20T09:01:11;8.43;;;7.57;;
45887;SDS011;31595;51.418;7.572;2022-11-20T09:03:39;8.75;;;7.95;;
45887;SDS011;31595;51.418;7.572;2022-11-20T09:06:06;8.35;;;7.55;;
45887;SDS011;31595;51.418;7.572;2022-11-20T09:08:34;8.63;;;7.82;;
45887;SDS011;31595;51.418;7.572;2022-11-20T09:11:05;8.88;;;8.02;;
45887;SDS011;31595;51.418;7.572;2022-11-20T09:13:34;13.15;;;11.68;;
45887;SDS011;31595;51.418;7.572;2022-11-20T09:16:07;11.10;;;9.88;;
45887;SDS011;31595;51.418;7.572;2022-11-20T09:18:37;11.43;;;10.32;;
45887;SDS011;31595;51.418;7.572;2022-11-20T09:21:09;12.20;;;11.10;;
45887;SDS011;31595;51.418;7.572;2022-11-20T09:23:38;15.90;;;14.20;;
45887;SDS011;31595;51.418;7.572;2022-11-20T09:26:06;61.30;;;48.30;;
45887;SDS011;31595;51.418;7.572;2022-11-20T09:28:37;24.17;;;21.67;;
45887;SDS011;31595;51.418;7.572;2022-11-20T09:33:33;15.57;;;14.18;;
45887;SDS011;31595;51.418;7.572;2022-11-20T09:36:03;16.38;;;14.93;;
45887;SDS011;31595;51.418;7.572;2022-11-20T09:38:31;12.30;;;11.20;;
45887;SDS011;31595;51.418;7.572;2022-11-20T09:41:01;12.25;;;11.15;;
45887;SDS011;31595;51.418;7.572;2022-11-20T09:43:33;11.65;;;10.57;;
45887;SDS011;31595;51.418;7.572;2022-11-20T09:46:20;10.88;;;9.88;;
45887;SDS011;31595;51.418;7.572;2022-11-20T09:49:01;12.75;;;11.65;;
45887;SDS011;31595;51.418;7.572;2022-11-20T09:51:42;10.45;;;9.38;;
45887;SDS011;31595;51.418;7.572;2022-11-20T09:54:17;12.57;;;11.45;;
45887;SDS011;31595;51.418;7.572;2022-11-20T09:56:48;12.40;;;11.23;;
45887;SDS011;31595;51.418;7.572;2022-11-20T09:59:25;10.75;;;9.75;;
45887;SDS011;31595;51.418;7.572;2022-11-20T10:01:59;11.30;;;10.20;;
45887;SDS011;31595;51.418;7.572;2022-11-20T10:04:29;11.70;;;10.50;;
45887;SDS011;31595;51.418;7.572;2022-11-20T10:07:00;12.73;;;11.52;;
45887;SDS011;31595;51.418;7.572;2022-11-20T10:09:32;14.02;;;12.63;;
45887;SDS011;31595;51.418;7.572;2022-11-20T10:12:09;13.93;;;11.85;;
45887;SDS011;31595;51.418;7.572;2022-11-20T10:14:54;12.90;;;11.70;;
45887;SDS011;31595;51.418;7.572;2022-11-20T10:17:51;13.60;;;12.30;;
45887;SDS011;31595;51.418;7.572;2022-11-20T10:20:30;10.30;;;9.30;;
45887;SDS011;31595;51.418;7.572;2022-11-20T10:23:15;10.13;;;9.13;;
45887;SDS011;31595;51.418;7.572;2022-11-20T10:25:58;11.63;;;10.40;;
45887;SDS011;31595;51.418;7.572;2022-11-20T10:28:39;11.20;;;10.10;;
45887;SDS011;31595;51.418;7.572;2022-11-20T10:31:23;10.75;;;9.60;;
45887;SDS011;31595;51.418;7.572;2022-11-20T10:33:55;10.63;;;9.63;;
45887;SDS011;31595;51.418;7.572;2022-11-20T10:36:27;10.15;;;8.90;;
45887;SDS011;31595;51.418;7.572;2022-11-20T10:38:59;10.35;;;8.27;;
45887;SDS011;31595;51.418;7.572;2022-11-20T10:41:32;11.18;;;9.32;;
45887;SDS011;31595;51.418;7.572;2022-11-20T10:44:05;10.30;;;8.18;;
45887;SDS011;31595;51.418;7.572;2022-11-20T10:46:38;10.98;;;9.32;;
45887;SDS011;31595;51.418;7.572;2022-11-20T10:49:12;9.70;;;8.40;;
45887;SDS011;31595;51.418;7.572;2022-11-20T10:51:46;12.00;;;9.77;;
45887;SDS011;31595;51.418;7.572;2022-11-20T10:54:22;11.35;;;9.30;;
45887;SDS011;31595;51.418;7.572;2022-11-20T10:56:59;13.27;;;11.05;;
45887;SDS011;31595;51.418;7.572;2022-11-20T10:59:35;11.55;;;9.57;;
45887;SDS011;31595;51.418;7.572;2022-11-20T11:04:59;16.30;;;12.15;;
45887;SDS011;31595;51.418;7.572;2022-11-20T11:07:37;13.23;;;10.30;;
45887;SDS011;31595;51.418;7.572;2022-11-20T11:10:14;14.75;;;10.98;;
45887;SDS011;31595;51.418;7.572;2022-11-20T11:12:45;21.85;;;14.10;;
45887;SDS011;31595;51.418;7.572;2022-11-20T11:15:14;17.05;;;11.98;;
45887;SDS011;31595;51.418;7.572;2022-11-20T11:17:54;16.02;;;11.98;;
45887;SDS011;31595;51.418;7.572;2022-11-20T11:20:21;18.65;;;13.52;;
45887;SDS011;31595;51.418;7.572;2022-11-20T11:22:50;14.93;;;12.05;;
45887;SDS011;31595;51.418;7.572;2022-11-20T11:28:19;14.23;;;12.35;;
45887;SDS011;31595;51.418;7.572;2022-11-20T11:30:48;12.70;;;10.18;;
45887;SDS011;31595;51.418;7.572;2022-11-20T11:33:19;18.70;;;13.07;;
45887;SDS011;31595;51.418;7.572;2022-11-20T11:35:48;25.10;;;15.98;;
45887;SDS011;31595;51.418;7.572;2022-11-20T11:38:19;12.65;;;9.77;;
45887;SDS011;31595;51.418;7.572;2022-11-20T11:40:49;14.00;;;11.70;;
45887;SDS011;31595;51.418;7.572;2022-11-20T11:43:20;11.07;;;9.35;;
45887;SDS011;31595;51.418;7.572;2022-11-20T11:46:13;12.20;;;10.02;;
45887;SDS011;31595;51.418;7.572;2022-11-20T11:48:56;12.82;;;9.93;;
45887;SDS011;31595;51.418;7.572;2022-11-20T11:51:25;11.32;;;10.05;;
45887;SDS011;31595;51.418;7.572;2022-11-20T11:53:56;12.70;;;10.57;;
45887;SDS011;31595;51.418;7.572;2022-11-20T11:56:26;11.32;;;9.55;;
45887;SDS011;31595;51.418;7.572;2022-11-20T11:58:55;10.10;;;8.05;;
45887;SDS011;31595;51.418;7.572;2022-11-20T12:01:27;10.55;;;8.18;;
45887;SDS011;31595;51.418;7.572;2022-11-20T12:04:02;9.75;;;7.82;;
45887;SDS011;31595;51.418;7.572;2022-11-20T12:06:32;9.70;;;8.30;;
45887;SDS011;31595;51.418;7.572;2022-11-20T12:09:04;10.75;;;8.75;;
45887;SDS011;31595;51.418;7.572;2022-11-20T12:11:37;10.43;;;8.63;;
45887;SDS011;31595;51.418;7.572;2022-11-20T12:14:11;10.65;;;9.30;;
45887;SDS011;31595;51.418;7.572;2022-11-20T12:16:45;10.32;;;8.73;;
45887;SDS011;31595;51.418;7.572;2022-11-20T12:19:14;11.30;;;9.85;;
45887;SDS011;31595;51.418;7.572;2022-11-20T12:21:45;10.35;;;9.07;;
45887;SDS011;31595;51.418;7.572;2022-11-20T12:27:28;9.85;;;8.70;;
45887;SDS011;31595;51.418;7.572;2022-11-20T12:30:09;10.52;;;8.52;;
45887;SDS011;31595;51.418;7.572;2022-11-20T12:32:45;10.98;;;8.30;;
45887;SDS011;31595;51.418;7.572;2022-11-20T12:41:36;8.00;;;6.65;;
45887;SDS011;31595;51.418;7.572;2022-11-20T12:44:36;7.53;;;6.13;;
45887;SDS011;31595;51.418;7.572;2022-11-20T12:47:39;8.65;;;7.18;;
45887;SDS011;31595;51.418;7.572;2022-11-20T12:50:28;8.70;;;7.40;;
45887;SDS011;31595;51.418;7.572;2022-11-20T12:53:08;8.13;;;6.57;;
45887;SDS011;31595;51.418;7.572;2022-11-20T12:55:49;7.88;;;6.32;;
45887;SDS011;31595;51.418;7.572;2022-11-20T12:58:25;7.28;;;5.90;;
45887;SDS011;31595;51.418;7.572;2022-11-20T13:01:00;9.27;;;6.40;;
45887;SDS011;31595;51.418;7.572;2022-11-20T13:03:59;9.32;;;7.78;;
45887;SDS011;31595;51.418;7.572;2022-11-20T13:06:34;10.05;;;7.63;;
45887;SDS011;31595;51.418;7.572;2022-11-20T13:09:02;10.18;;;8.30;;
45887;SDS011;31595;51.418;7.572;2022-11-20T13:11:36;9.98;;;8.07;;
45887;SDS011;31595;51.418;7.572;2022-11-20T13:14:13;11.60;;;8.55;;
45887;SDS011;31595;51.418;7.572;2022-11-20T13:16:52;10.82;;;8.82;;
45887;SDS011;31595;51.418;7.572;2022-11-20T13:19:25;8.95;;;7.20;;
45887;SDS011;31595;51.418;7.572;2022-11-20T13:21:54;9.45;;;7.55;;
45887;SDS011;31595;51.418;7.572;2022-11-20T13:24:22;10.15;;;8.05;;
45887;SDS011;31595;51.418;7.572;2022-11-20T13:27:03;11.15;;;8.18;;
45887;SDS011;31595;51.418;7.572;2022-11-20T13:29:44;13.38;;;10.32;;
45887;SDS011;31595;51.418;7.572;2022-11-20T13:32:13;12.53;;;9.87;;
45887;SDS011;31595;51.418;7.572;2022-11-20T13:37:24;12.30;;;9.55;;
45887;SDS011;31595;51.418;7.572;2022-11-20T13:40:04;14.88;;;10.38;;
45887;SDS011;31595;51.418;7.572;2022-11-20T13:42:54;12.27;;;9.43;;
45887;SDS011;31595;51.418;7.572;2022-11-20T13:45:28;12.20;;;10.00;;
45887;SDS011;31595;51.418;7.572;2022-11-20T13:47:57;12.10;;;9.57;;
45887;SDS011;31595;51.418;7.572;2022-11-20T13:50:37;13.98;;;10.90;;
45887;SDS011;31595;51.418;7.572;2022-11-20T13:53:12;14.07;;;10.63;;
45887;SDS011;31595;51.418;7.572;2022-11-20T13:55:53;13.55;;;10.30;;
45887;SDS011;31595;51.418;7.572;2022-11-20T13:58:29;13.35;;;9.60;;
45887;SDS011;31595;51.418;7.572;2022-11-20T14:01:08;13.27;;;10.20;;
45887;SDS011;31595;51.418;7.572;2022-11-20T14:03:40;13.85;;;10.02;;
45887;SDS011;31595;51.418;7.572;2022-11-20T14:06:11;12.32;;;10.10;;
45887;SDS011;31595;51.418;7.572;2022-11-20T14:08:43;11.32;;;9.20;;
45887;SDS011;31595;51.418;7.572;2022-11-20T14:11:14;13.00;;;10.02;;
45887;SDS011;31595;51.418;7.572;2022-11-20T14:14:00;13.55;;;10.55;;
45887;SDS011;31595;51.418;7.572;2022-11-20T14:16:31;11.13;;;9.43;;
45887;SDS011;31595;51.418;7.572;2022-11-20T14:22:07;12.60;;;10.20;;
45887;SDS011;31595;51.418;7.572;2022-11-20T14:24:36;16.42;;;11.98;;
45887;SDS011;31595;51.418;7.572;2022-11-20T14:27:03;15.65;;;12.10;;
45887;SDS011;31595;51.418;7.572;2022-11-20T14:29:34;16.80;;;11.32;;
45887;SDS011;31595;51.418;7.572;2022-11-20T14:32:03;14.35;;;11.13;;
45887;SDS011;31595;51.418;7.572;2022-11-20T14:34:31;14.93;;;11.35;;
45887;SDS011;31595;51.418;7.572;2022-11-20T14:37:04;13.00;;;10.65;;
45887;SDS011;31595;51.418;7.572;2022-11-20T14:42:01;12.93;;;10.60;;
45887;SDS011;31595;51.418;7.572;2022-11-20T14:44:30;12.95;;;10.02;;
45887;SDS011;31595;51.418;7.572;2022-11-20T14:47:02;15.10;;;10.90;;
45887;SDS011;31595;51.418;7.572;2022-11-20T14:49:30;16.17;;;11.07;;
45887;SDS011;31595;51.418;7.572;2022-11-20T14:51:59;14.15;;;10.30;;
45887;SDS011;31595;51.418;7.572;2022-11-20T14:54:27;13.50;;;10.95;;
45887;SDS011;31595;51.418;7.572;2022-11-20T14:56:56;13.20;;;10.43;;
45887;SDS011;31595;51.418;7.572;2022-11-20T14:59:25;13.20;;;10.63;;
45887;SDS011;31595;51.418;7.572;2022-11-20T15:01:54;18.75;;;13.85;;
45887;SDS011;31595;51.418;7.572;2022-11-20T15:04:24;18.73;;;14.43;;
45887;SDS011;31595;51.418;7.572;2022-11-20T15:06:51;16.38;;;13.70;;
45887;SDS011;31595;51.418;7.572;2022-11-20T15:09:21;15.57;;;12.02;;
45887;SDS011;31595;51.418;7.572;2022-11-20T15:11:52;15.15;;;11.80;;
45887;SDS011;31595;51.418;7.572;2022-11-20T15:14:22;15.77;;;12.10;;